Terminal Aerodrome Forecast
Issued by NWS

Home | Current Version | Previous Version | Text Only | Print | Product List | Glossary On
Versions: 1 2 3 4 5 6 7 8 9 10 11 12
000
FTUS45 KBOI 231729
TAFJER
TAF
KJER 231729Z 2318/2418 13010KT P6SM BKN100
     FM240000 VRB06KT P6SM VCSH BKN100
      TEMPO 2401/2403 VRB10G25KT
     FM240300 08008KT P6SM SCT100=

USA.gov is the U.S. government's official web portal to all federal, state and local government web resources and services.